sensor_id;sensor_type;location;lat;lon;timestamp;pressure;altitude;pressure_sealevel;temperature;humidity
51496;BME280;37572;52.094;4.870;2024-02-23T00:00:24;98654.94;;;10.26;58.96
51496;BME280;37572;52.094;4.870;2024-02-23T00:02:49;98657.41;;;10.28;58.65
51496;BME280;37572;52.094;4.870;2024-02-23T00:05:14;98662.31;;;10.31;58.53
51496;BME280;37572;52.094;4.870;2024-02-23T00:07:39;98668.06;;;10.34;58.50
51496;BME280;37572;52.094;4.870;2024-02-23T00:10:05;98663.34;;;10.36;58.28
51496;BME280;37572;52.094;4.870;2024-02-23T00:12:31;98667.41;;;10.39;58.00
51496;BME280;37572;52.094;4.870;2024-02-23T00:14:57;98673.16;;;10.43;57.82
51496;BME280;37572;52.094;4.870;2024-02-23T00:17:22;98669.47;;;10.44;57.71
51496;BME280;37572;52.094;4.870;2024-02-23T00:19:48;98673.78;;;10.45;57.46
51496;BME280;37572;52.094;4.870;2024-02-23T00:22:14;98678.69;;;10.48;57.39
51496;BME280;37572;52.094;4.870;2024-02-23T00:24:39;98671.72;;;10.47;57.55
51496;BME280;37572;52.094;4.870;2024-02-23T00:27:05;98684.00;;;10.48;57.35
51496;BME280;37572;52.094;4.870;2024-02-23T00:29:31;98696.47;;;10.47;57.14
51496;BME280;37572;52.094;4.870;2024-02-23T00:31:56;98687.69;;;10.47;57.17
51496;BME280;37572;52.094;4.870;2024-02-23T00:34:21;98688.50;;;10.47;57.08
51496;BME280;37572;52.094;4.870;2024-02-23T00:36:47;98699.13;;;10.47;57.32
51496;BME280;37572;52.094;4.870;2024-02-23T00:39:13;98706.72;;;10.50;57.30
51496;BME280;37572;52.094;4.870;2024-02-23T00:41:39;98700.16;;;10.53;57.21
51496;BME280;37572;52.094;4.870;2024-02-23T00:44:04;98704.25;;;10.55;57.11
51496;BME280;37572;52.094;4.870;2024-02-23T00:46:30;98711.22;;;10.57;57.02
51496;BME280;37572;52.094;4.870;2024-02-23T00:48:55;98711.22;;;10.57;56.95
51496;BME280;37572;52.094;4.870;2024-02-23T00:51:21;98710.41;;;10.56;56.57
51496;BME280;37572;52.094;4.870;2024-02-23T00:53:46;98710.19;;;10.58;56.72
51496;BME280;37572;52.094;4.870;2024-02-23T00:56:12;98716.53;;;10.57;56.34
51496;BME280;37572;52.094;4.870;2024-02-23T00:58:38;98724.53;;;10.50;55.95
51496;BME280;37572;52.094;4.870;2024-02-23T01:01:03;98731.72;;;10.43;55.65
51496;BME280;37572;52.094;4.870;2024-02-23T01:03:29;98730.28;;;10.33;55.64
51496;BME280;37572;52.094;4.870;2024-02-23T01:05:54;98741.69;;;10.27;55.57
51496;BME280;37572;52.094;4.870;2024-02-23T01:08:19;98755.44;;;10.24;55.73
51496;BME280;37572;52.094;4.870;2024-02-23T01:10:45;98756.44;;;10.16;55.65
51496;BME280;37572;52.094;4.870;2024-02-23T01:13:10;98765.00;;;10.05;55.82
51496;BME280;37572;52.094;4.870;2024-02-23T01:15:35;98770.09;;;9.93;55.92
51496;BME280;37572;52.094;4.870;2024-02-23T01:18:01;98765.16;;;9.84;56.07
51496;BME280;37572;52.094;4.870;2024-02-23T01:20:26;98773.72;;;9.79;56.30
51496;BME280;37572;52.094;4.870;2024-02-23T01:22:51;98785.59;;;9.76;56.60
51496;BME280;37572;52.094;4.870;2024-02-23T01:25:17;98782.31;;;9.68;56.57
51496;BME280;37572;52.094;4.870;2024-02-23T01:27:43;98786.56;;;9.62;57.16
51496;BME280;37572;52.094;4.870;2024-02-23T01:30:10;98788.59;;;9.53;57.30
51496;BME280;37572;52.094;4.870;2024-02-23T01:32:35;98790.41;;;9.46;57.51
51496;BME280;37572;52.094;4.870;2024-02-23T01:35:02;98784.22;;;9.39;57.25
51496;BME280;37572;52.094;4.870;2024-02-23T01:37:28;98789.50;;;9.32;57.30
51496;BME280;37572;52.094;4.870;2024-02-23T01:39:53;98795.19;;;9.29;57.23
51496;BME280;37572;52.094;4.870;2024-02-23T01:42:18;98781.50;;;9.25;57.40
51496;BME280;37572;52.094;4.870;2024-02-23T01:44:44;98797.44;;;9.25;57.45
51496;BME280;37572;52.094;4.870;2024-02-23T01:47:10;98799.09;;;9.26;57.43
51496;BME280;37572;52.094;4.870;2024-02-23T01:49:36;98791.13;;;9.26;57.69
51496;BME280;37572;52.094;4.870;2024-02-23T01:52:02;98785.63;;;9.28;57.82
51496;BME280;37572;52.094;4.870;2024-02-23T01:54:29;98784.59;;;9.29;58.25
51496;BME280;37572;52.094;4.870;2024-02-23T01:56:55;98793.81;;;9.33;58.40
51496;BME280;37572;52.094;4.870;2024-02-23T01:59:23;98797.69;;;9.37;58.53
51496;BME280;37572;52.094;4.870;2024-02-23T02:01:48;98786.28;;;9.43;58.44
51496;BME280;37572;52.094;4.870;2024-02-23T02:04:14;98790.81;;;9.50;58.00
51496;BME280;37572;52.094;4.870;2024-02-23T02:06:39;98803.75;;;9.59;57.83
51496;BME280;37572;52.094;4.870;2024-02-23T02:09:05;98800.06;;;9.60;57.67
51496;BME280;37572;52.094;4.870;2024-02-23T02:11:30;98801.31;;;9.65;57.29
51496;BME280;37572;52.094;4.870;2024-02-23T02:13:56;98812.94;;;9.63;57.46
51496;BME280;37572;52.094;4.870;2024-02-23T02:16:21;98798.44;;;9.66;57.42
51496;BME280;37572;52.094;4.870;2024-02-23T02:18:46;98799.88;;;9.69;57.33
51496;BME280;37572;52.094;4.870;2024-02-23T02:21:12;98798.47;;;9.73;56.58
51496;BME280;37572;52.094;4.870;2024-02-23T02:23:37;98809.72;;;9.75;57.13
51496;BME280;37572;52.094;4.870;2024-02-23T02:26:03;98810.34;;;9.77;56.98
51496;BME280;37572;52.094;4.870;2024-02-23T02:28:29;98805.63;;;9.79;57.09
51496;BME280;37572;52.094;4.870;2024-02-23T02:30:55;98807.69;;;9.77;56.91
51496;BME280;37572;52.094;4.870;2024-02-23T02:33:21;98808.28;;;9.79;57.19
51496;BME280;37572;52.094;4.870;2024-02-23T02:35:47;98807.47;;;9.78;57.23
51496;BME280;37572;52.094;4.870;2024-02-23T02:38:12;98811.38;;;9.76;57.38
51496;BME280;37572;52.094;4.870;2024-02-23T02:40:38;98823.41;;;9.72;57.50
51496;BME280;37572;52.094;4.870;2024-02-23T02:43:04;98807.84;;;9.69;57.63
51496;BME280;37572;52.094;4.870;2024-02-23T02:45:30;98802.72;;;9.67;57.63
51496;BME280;37572;52.094;4.870;2024-02-23T02:47:56;98812.75;;;9.65;57.87
51496;BME280;37572;52.094;4.870;2024-02-23T02:50:21;98815.19;;;9.60;57.73
51496;BME280;37572;52.094;4.870;2024-02-23T02:52:47;98818.44;;;9.55;57.64
51496;BME280;37572;52.094;4.870;2024-02-23T02:55:12;98824.31;;;9.51;57.60
51496;BME280;37572;52.094;4.870;2024-02-23T02:57:38;98821.03;;;9.42;57.77
51496;BME280;37572;52.094;4.870;2024-02-23T03:00:04;98817.31;;;9.36;57.93
51496;BME280;37572;52.094;4.870;2024-02-23T03:02:34;98817.91;;;9.32;57.77
51496;BME280;37572;52.094;4.870;2024-02-23T03:04:59;98822.81;;;9.28;57.91
51496;BME280;37572;52.094;4.870;2024-02-23T03:07:25;98829.31;;;9.25;57.93
51496;BME280;37572;52.094;4.870;2024-02-23T03:09:50;98826.84;;;9.24;58.17
51496;BME280;37572;52.094;4.870;2024-02-23T03:12:16;98828.69;;;9.23;58.22
51496;BME280;37572;52.094;4.870;2024-02-23T03:14:42;98840.97;;;9.24;58.16
51496;BME280;37572;52.094;4.870;2024-02-23T03:17:08;98836.28;;;9.26;58.16
51496;BME280;37572;52.094;4.870;2024-02-23T03:19:34;98837.66;;;9.22;57.96
51496;BME280;37572;52.094;4.870;2024-02-23T03:22:00;98842.78;;;9.24;58.06
51496;BME280;37572;52.094;4.870;2024-02-23T03:24:25;98841.78;;;9.25;57.88
51496;BME280;37572;52.094;4.870;2024-02-23T03:26:50;98842.97;;;9.22;58.08
51496;BME280;37572;52.094;4.870;2024-02-23T03:29:16;98848.94;;;9.24;58.14
51496;BME280;37572;52.094;4.870;2024-02-23T03:31:41;98842.97;;;9.22;58.05
51496;BME280;37572;52.094;4.870;2024-02-23T03:34:07;98846.06;;;9.19;58.06
51496;BME280;37572;52.094;4.870;2024-02-23T03:36:33;98848.44;;;9.14;58.14
51496;BME280;37572;52.094;4.870;2024-02-23T03:38:59;98854.56;;;9.08;58.28
51496;BME280;37572;52.094;4.870;2024-02-23T03:41:24;98852.47;;;9.03;58.40
51496;BME280;37572;52.094;4.870;2024-02-23T03:43:49;98853.66;;;9.01;58.48
51496;BME280;37572;52.094;4.870;2024-02-23T03:46:14;98862.03;;;8.98;58.64
51496;BME280;37572;52.094;4.870;2024-02-23T03:48:41;98871.38;;;8.94;58.76
51496;BME280;37572;52.094;4.870;2024-02-23T03:51:08;98864.84;;;8.89;58.82
51496;BME280;37572;52.094;4.870;2024-02-23T03:53:34;98865.03;;;8.88;58.91
51496;BME280;37572;52.094;4.870;2024-02-23T03:55:59;98855.41;;;8.87;59.07
51496;BME280;37572;52.094;4.870;2024-02-23T03:58:24;98863.56;;;8.85;59.11
51496;BME280;37572;52.094;4.870;2024-02-23T04:00:50;98855.34;;;8.80;59.37
51496;BME280;37572;52.094;4.870;2024-02-23T04:03:16;98864.72;;;8.76;59.32
51496;BME280;37572;52.094;4.870;2024-02-23T04:05:41;98871.84;;;8.76;59.48
51496;BME280;37572;52.094;4.870;2024-02-23T04:08:07;98870.59;;;8.72;59.52
51496;BME280;37572;52.094;4.870;2024-02-23T04:10:32;98856.31;;;8.73;59.37
51496;BME280;37572;52.094;4.870;2024-02-23T04:12:57;98852.84;;;8.72;59.77
51496;BME280;37572;52.094;4.870;2024-02-23T04:15:23;98857.72;;;8.68;59.90
51496;BME280;37572;52.094;4.870;2024-02-23T04:17:48;98872.16;;;8.66;60.07
51496;BME280;37572;52.094;4.870;2024-02-23T04:20:13;98872.56;;;8.63;60.10
51496;BME280;37572;52.094;4.870;2024-02-23T04:22:39;98876.59;;;8.59;60.07
51496;BME280;37572;52.094;4.870;2024-02-23T04:25:04;98871.09;;;8.60;59.96
51496;BME280;37572;52.094;4.870;2024-02-23T04:27:30;98890.25;;;8.56;60.27
51496;BME280;37572;52.094;4.870;2024-02-23T04:29:56;98887.16;;;8.52;60.24
51496;BME280;37572;52.094;4.870;2024-02-23T04:32:21;98883.31;;;8.55;60.41
51496;BME280;37572;52.094;4.870;2024-02-23T04:34:46;98884.94;;;8.56;60.37
51496;BME280;37572;52.094;4.870;2024-02-23T04:37:12;98889.88;;;8.59;60.58
51496;BME280;37572;52.094;4.870;2024-02-23T04:39:37;98891.53;;;8.60;60.65
51496;BME280;37572;52.094;4.870;2024-02-23T04:42:04;98889.88;;;8.59;60.64
51496;BME280;37572;52.094;4.870;2024-02-23T04:44:29;98881.91;;;8.59;60.95
51496;BME280;37572;52.094;4.870;2024-02-23T04:46:54;98888.44;;;8.56;60.84
51496;BME280;37572;52.094;4.870;2024-02-23T04:49:20;98884.56;;;8.59;61.11
51496;BME280;37572;52.094;4.870;2024-02-23T04:51:45;98887.66;;;8.62;61.07
51496;BME280;37572;52.094;4.870;2024-02-23T04:54:10;98890.38;;;8.69;60.90
51496;BME280;37572;52.094;4.870;2024-02-23T04:56:36;98891.66;;;8.73;60.92
51496;BME280;37572;52.094;4.870;2024-02-23T04:59:01;98887.41;;;8.79;60.69
51496;BME280;37572;52.094;4.870;2024-02-23T05:01:26;98891.75;;;8.86;60.64
51496;BME280;37572;52.094;4.870;2024-02-23T05:03:52;98882.56;;;8.89;60.46
51496;BME280;37572;52.094;4.870;2024-02-23T05:06:17;98890.16;;;8.92;60.61
51496;BME280;37572;52.094;4.870;2024-02-23T05:08:42;98891.00;;;8.93;60.34
51496;BME280;37572;52.094;4.870;2024-02-23T05:11:08;98895.47;;;8.92;60.40
51496;BME280;37572;52.094;4.870;2024-02-23T05:13:33;98889.97;;;8.94;60.49
51496;BME280;37572;52.094;4.870;2024-02-23T05:15:58;98886.56;;;9.00;60.59
51496;BME280;37572;52.094;4.870;2024-02-23T05:18:24;98878.59;;;9.00;60.49
51496;BME280;37572;52.094;4.870;2024-02-23T05:20:49;98872.06;;;9.02;60.53
51496;BME280;37572;52.094;4.870;2024-02-23T05:23:14;98880.47;;;9.06;60.25
51496;BME280;37572;52.094;4.870;2024-02-23T05:25:43;98868.63;;;9.08;60.26
51496;BME280;37572;52.094;4.870;2024-02-23T05:28:08;98869.91;;;9.13;60.47
51496;BME280;37572;52.094;4.870;2024-02-23T05:30:35;98869.44;;;9.09;60.15
51496;BME280;37572;52.094;4.870;2024-02-23T05:33:00;98859.25;;;9.06;60.07
51496;BME280;37572;52.094;4.870;2024-02-23T05:35:28;98857.41;;;9.06;60.15
51496;BME280;37572;52.094;4.870;2024-02-23T05:37:54;98864.56;;;9.06;60.09
51496;BME280;37572;52.094;4.870;2024-02-23T05:40:20;98856.59;;;9.06;60.16
51496;BME280;37572;52.094;4.870;2024-02-23T05:42:46;98856.38;;;9.07;60.28
51496;BME280;37572;52.094;4.870;2024-02-23T05:45:11;98858.25;;;9.14;59.89
51496;BME280;37572;52.094;4.870;2024-02-23T05:47:37;98857.69;;;9.18;59.99
51496;BME280;37572;52.094;4.870;2024-02-23T05:50:04;98846.84;;;9.20;59.89
51496;BME280;37572;52.094;4.870;2024-02-23T05:52:32;98846.84;;;9.20;59.76
51496;BME280;37572;52.094;4.870;2024-02-23T05:54:58;98867.91;;;9.21;59.74
51496;BME280;37572;52.094;4.870;2024-02-23T05:57:28;98871.38;;;9.22;59.51
51496;BME280;37572;52.094;4.870;2024-02-23T05:59:54;98876.88;;;9.20;59.52
51496;BME280;37572;52.094;4.870;2024-02-23T06:02:21;98868.88;;;9.14;59.43
51496;BME280;37572;52.094;4.870;2024-02-23T06:04:46;98869.03;;;9.05;59.64
51496;BME280;37572;52.094;4.870;2024-02-23T06:07:13;98869.22;;;9.04;59.68
51496;BME280;37572;52.094;4.870;2024-02-23T06:09:38;98876.06;;;8.92;59.57
51496;BME280;37572;52.094;4.870;2024-02-23T06:12:04;98888.34;;;8.93;59.85
51496;BME280;37572;52.094;4.870;2024-02-23T06:14:30;98891.81;;;8.93;59.68
51496;BME280;37572;52.094;4.870;2024-02-23T06:16:56;98884.84;;;8.92;59.68
51496;BME280;37572;52.094;4.870;2024-02-23T06:19:21;98878.78;;;8.98;59.58
51496;BME280;37572;52.094;4.870;2024-02-23T06:21:49;98888.59;;;8.98;59.28
51496;BME280;37572;52.094;4.870;2024-02-23T06:24:16;98884.91;;;8.99;59.35
51496;BME280;37572;52.094;4.870;2024-02-23T06:26:41;98889.03;;;9.01;59.64
51496;BME280;37572;52.094;4.870;2024-02-23T06:29:07;98890.63;;;9.02;59.52
51496;BME280;37572;52.094;4.870;2024-02-23T06:31:36;98890.88;;;9.07;59.46
51496;BME280;37572;52.094;4.870;2024-02-23T06:34:01;98890.22;;;8.99;58.96
51496;BME280;37572;52.094;4.870;2024-02-23T06:36:27;98875.38;;;9.04;59.09
51496;BME280;37572;52.094;4.870;2024-02-23T06:38:52;98883.28;;;8.98;59.06
51496;BME280;37572;52.094;4.870;2024-02-23T06:41:17;98873.91;;;9.02;58.95
51496;BME280;37572;52.094;4.870;2024-02-23T06:43:43;98895.94;;;9.02;58.47
51496;BME280;37572;52.094;4.870;2024-02-23T06:46:09;98878.78;;;8.98;58.79
51496;BME280;37572;52.094;4.870;2024-02-23T06:48:35;98869.81;;;8.99;58.41
51496;BME280;37572;52.094;4.870;2024-02-23T06:51:01;98886.94;;;8.97;58.71
51496;BME280;37572;52.094;4.870;2024-02-23T06:53:26;98880.22;;;9.01;58.42
51496;BME280;37572;52.094;4.870;2024-02-23T06:55:51;98882.47;;;9.04;58.38
51496;BME280;37572;52.094;4.870;2024-02-23T06:58:16;98887.59;;;9.05;58.72
51496;BME280;37572;52.094;4.870;2024-02-23T07:00:43;98893.16;;;9.11;58.62
51496;BME280;37572;52.094;4.870;2024-02-23T07:03:09;98892.59;;;9.15;58.68
51496;BME280;37572;52.094;4.870;2024-02-23T07:05:34;98892.59;;;9.15;58.35
51496;BME280;37572;52.094;4.870;2024-02-23T07:08:01;98886.41;;;9.08;58.34
51496;BME280;37572;52.094;4.870;2024-02-23T07:10:27;98902.78;;;9.12;58.30
51496;BME280;37572;52.094;4.870;2024-02-23T07:12:52;98894.81;;;9.12;58.28
51496;BME280;37572;52.094;4.870;2024-02-23T07:15:19;98892.09;;;9.05;58.11
51496;BME280;37572;52.094;4.870;2024-02-23T07:17:45;98904.63;;;9.11;58.28
51496;BME280;37572;52.094;4.870;2024-02-23T07:20:10;98892.09;;;9.05;58.20
51496;BME280;37572;52.094;4.870;2024-02-23T07:22:36;98884.28;;;8.97;57.98
51496;BME280;37572;52.094;4.870;2024-02-23T07:25:01;98890.03;;;9.00;58.40
51496;BME280;37572;52.094;4.870;2024-02-23T07:27:29;98875.56;;;9.03;58.10
51496;BME280;37572;52.094;4.870;2024-02-23T07:29:55;98895.00;;;9.10;58.19
51496;BME280;37572;52.094;4.870;2024-02-23T07:32:21;98883.38;;;9.11;57.96
51496;BME280;37572;52.094;4.870;2024-02-23T07:34:46;98869.31;;;9.17;57.90
51496;BME280;37572;52.094;4.870;2024-02-23T07:37:13;98874.22;;;9.20;57.85
51496;BME280;37572;52.094;4.870;2024-02-23T07:39:38;98869.31;;;9.17;57.90
51496;BME280;37572;52.094;4.870;2024-02-23T07:42:04;98864.22;;;9.22;57.98
51496;BME280;37572;52.094;4.870;2024-02-23T07:44:31;98869.91;;;9.13;57.80
51496;BME280;37572;52.094;4.870;2024-02-23T07:46:56;98866.03;;;9.15;58.00
51496;BME280;37572;52.094;4.870;2024-02-23T07:49:23;98872.75;;;9.11;58.22
51496;BME280;37572;52.094;4.870;2024-02-23T07:51:49;98869.59;;;9.01;58.44
51496;BME280;37572;52.094;4.870;2024-02-23T07:54:14;98857.91;;;8.95;58.35
51496;BME280;37572;52.094;4.870;2024-02-23T07:56:39;98862.19;;;8.89;58.78
51496;BME280;37572;52.094;4.870;2024-02-23T07:59:05;98860.72;;;8.87;58.63
51496;BME280;37572;52.094;4.870;2024-02-23T08:01:30;98858.00;;;8.80;58.92
51496;BME280;37572;52.094;4.870;2024-02-23T08:03:55;98860.59;;;8.74;59.20
51496;BME280;37572;52.094;4.870;2024-02-23T08:06:21;98869.13;;;8.69;59.58
51496;BME280;37572;52.094;4.870;2024-02-23T08:08:46;98857.28;;;8.65;60.15
51496;BME280;37572;52.094;4.870;2024-02-23T08:11:12;98881.09;;;8.58;60.21
51496;BME280;37572;52.094;4.870;2024-02-23T08:13:39;98853.03;;;8.49;60.50
51496;BME280;37572;52.094;4.870;2024-02-23T08:16:04;98843.38;;;8.41;60.72
51496;BME280;37572;52.094;4.870;2024-02-23T08:18:31;98848.44;;;8.36;61.35
51496;BME280;37572;52.094;4.870;2024-02-23T08:20:56;98850.41;;;8.34;61.45
51496;BME280;37572;52.094;4.870;2024-02-23T08:23:22;98852.44;;;8.32;61.54
51496;BME280;37572;52.094;4.870;2024-02-23T08:25:48;98852.88;;;8.36;61.70
51496;BME280;37572;52.094;4.870;2024-02-23T08:28:13;98854.53;;;8.37;61.80
51496;BME280;37572;52.094;4.870;2024-02-23T08:30:38;98852.44;;;8.32;62.12
51496;BME280;37572;52.094;4.870;2024-02-23T08:33:04;98848.44;;;8.36;62.24
51496;BME280;37572;52.094;4.870;2024-02-23T08:35:30;98863.13;;;8.39;61.88
51496;BME280;37572;52.094;4.870;2024-02-23T08:37:56;98865.59;;;8.40;61.93
51496;BME280;37572;52.094;4.870;2024-02-23T08:40:21;98863.50;;;8.36;62.32
51496;BME280;37572;52.094;4.870;2024-02-23T08:42:48;98856.19;;;8.38;62.33
51496;BME280;37572;52.094;4.870;2024-02-23T08:45:15;98870.38;;;8.45;62.53
51496;BME280;37572;52.094;4.870;2024-02-23T08:47:41;98866.50;;;8.47;62.38
51496;BME280;37572;52.094;4.870;2024-02-23T08:50:07;98856.63;;;8.41;62.28
51496;BME280;37572;52.094;4.870;2024-02-23T08:52:32;98857.28;;;8.43;62.79
51496;BME280;37572;52.094;4.870;2024-02-23T08:54:57;98855.88;;;8.47;62.65
51496;BME280;37572;52.094;4.870;2024-02-23T08:57:23;98857.78;;;8.54;62.54
51496;BME280;37572;52.094;4.870;2024-02-23T08:59:49;98867.78;;;8.51;62.69
51496;BME280;37572;52.094;4.870;2024-02-23T09:02:14;98857.59;;;8.55;62.46
51496;BME280;37572;52.094;4.870;2024-02-23T09:04:40;98852.66;;;8.52;62.46
51496;BME280;37572;52.094;4.870;2024-02-23T09:07:06;98861.44;;;8.52;62.77
51496;BME280;37572;52.094;4.870;2024-02-23T09:09:31;98850.81;;;8.52;62.76
51496;BME280;37572;52.094;4.870;2024-02-23T09:11:57;98852.09;;;8.57;62.94
51496;BME280;37572;52.094;4.870;2024-02-23T09:14:22;98843.75;;;8.60;63.00
51496;BME280;37572;52.094;4.870;2024-02-23T09:16:47;98851.34;;;8.63;62.95
51496;BME280;37572;52.094;4.870;2024-02-23T09:19:19;98840.13;;;8.67;63.12
51496;BME280;37572;52.094;4.870;2024-02-23T09:21:45;98850.63;;;8.76;63.00
51496;BME280;37572;52.094;4.870;2024-02-23T09:24:10;98845.97;;;8.78;62.77
51496;BME280;37572;52.094;4.870;2024-02-23T09:26:35;98844.59;;;8.88;62.85
51496;BME280;37572;52.094;4.870;2024-02-23T09:29:01;98854.66;;;8.93;62.80
51496;BME280;37572;52.094;4.870;2024-02-23T09:31:26;98853.03;;;8.99;62.83
51496;BME280;37572;52.094;4.870;2024-02-23T09:33:54;98853.03;;;8.99;62.67
51496;BME280;37572;52.094;4.870;2024-02-23T09:36:19;98851.50;;;9.11;62.45
51496;BME280;37572;52.094;4.870;2024-02-23T09:38:44;98850.56;;;9.25;62.02
51496;BME280;37572;52.094;4.870;2024-02-23T09:41:22;98843.19;;;9.21;61.78
51496;BME280;37572;52.094;4.870;2024-02-23T09:43:48;98849.38;;;9.28;61.60
51496;BME280;37572;52.094;4.870;2024-02-23T09:46:15;98857.75;;;9.32;61.43
51496;BME280;37572;52.094;4.870;2024-02-23T09:48:43;98855.34;;;9.37;61.47
51496;BME280;37572;52.094;4.870;2024-02-23T09:51:09;98866.81;;;9.44;61.22
51496;BME280;37572;52.094;4.870;2024-02-23T09:53:37;98881.31;;;9.41;61.16
51496;BME280;37572;52.094;4.870;2024-02-23T09:56:04;98874.00;;;9.50;60.99
51496;BME280;37572;52.094;4.870;2024-02-23T09:58:31;98865.25;;;9.56;60.72
51496;BME280;37572;52.094;4.870;2024-02-23T10:00:58;98865.50;;;9.68;60.84
51496;BME280;37572;52.094;4.870;2024-02-23T10:03:27;98871.88;;;9.74;60.59
51496;BME280;37572;52.094;4.870;2024-02-23T10:05:54;98884.16;;;9.75;60.34
51496;BME280;37572;52.094;4.870;2024-02-23T10:08:19;98882.09;;;9.77;59.91
51496;BME280;37572;52.094;4.870;2024-02-23T10:10:46;98864.97;;;9.86;60.00
51496;BME280;37572;52.094;4.870;2024-02-23T10:13:12;98866.78;;;9.86;59.71
51496;BME280;37572;52.094;4.870;2024-02-23T10:15:37;98872.13;;;9.92;59.96
51496;BME280;37572;52.094;4.870;2024-02-23T10:18:04;98874.00;;;9.98;59.31
51496;BME280;37572;52.094;4.870;2024-02-23T10:20:29;98886.91;;;10.02;59.22
51496;BME280;37572;52.094;4.870;2024-02-23T10:22:56;98890.38;;;10.02;59.04
51496;BME280;37572;52.094;4.870;2024-02-23T10:25:21;98904.13;;;10.12;59.13
51496;BME280;37572;52.094;4.870;2024-02-23T10:27:47;98894.97;;;10.22;59.04
51496;BME280;37572;52.094;4.870;2024-02-23T10:30:13;98893.16;;;10.35;58.72
51496;BME280;37572;52.094;4.870;2024-02-23T10:32:40;98908.31;;;10.35;58.71
51496;BME280;37572;52.094;4.870;2024-02-23T10:35:10;98899.97;;;10.45;58.49
51496;BME280;37572;52.094;4.870;2024-02-23T10:37:35;98914.72;;;10.61;58.25
51496;BME280;37572;52.094;4.870;2024-02-23T10:40:01;98902.25;;;10.74;58.08
51496;BME280;37572;52.094;4.870;2024-02-23T10:42:33;98910.06;;;10.83;57.83
51496;BME280;37572;52.094;4.870;2024-02-23T10:44:59;98916.78;;;10.85;57.85
51496;BME280;37572;52.094;4.870;2024-02-23T10:47:26;98905.53;;;10.90;57.33
51496;BME280;37572;52.094;4.870;2024-02-23T10:49:53;98919.66;;;10.97;57.02
51496;BME280;37572;52.094;4.870;2024-02-23T10:52:22;98912.91;;;11.08;56.93
51496;BME280;37572;52.094;4.870;2024-02-23T10:54:48;98909.84;;;11.11;56.75
51496;BME280;37572;52.094;4.870;2024-02-23T10:57:17;98927.66;;;11.17;56.24
51496;BME280;37572;52.094;4.870;2024-02-23T10:59:47;98930.97;;;11.19;56.26
51496;BME280;37572;52.094;4.870;2024-02-23T11:02:15;98931.56;;;11.21;55.91
51496;BME280;37572;52.094;4.870;2024-02-23T11:04:48;98929.09;;;11.26;56.06
51496;BME280;37572;52.094;4.870;2024-02-23T11:07:20;98943.03;;;11.35;56.19
51496;BME280;37572;52.094;4.870;2024-02-23T11:09:52;98939.31;;;11.50;56.17
51496;BME280;37572;52.094;4.870;2024-02-23T11:12:29;98928.41;;;11.71;55.70
51496;BME280;37572;52.094;4.870;2024-02-23T11:14:58;98938.63;;;11.88;55.35
51496;BME280;37572;52.094;4.870;2024-02-23T11:17:27;98942.50;;;11.98;54.64
51496;BME280;37572;52.094;4.870;2024-02-23T11:19:54;98937.97;;;11.99;54.05
51496;BME280;37572;52.094;4.870;2024-02-23T11:22:27;98953.19;;;11.98;54.49
51496;BME280;37572;52.094;4.870;2024-02-23T11:24:52;98963.63;;;12.00;54.24
51496;BME280;37572;52.094;4.870;2024-02-23T11:27:18;98964.25;;;11.95;54.16
51496;BME280;37572;52.094;4.870;2024-02-23T11:29:47;98963.84;;;11.85;53.78
51496;BME280;37572;52.094;4.870;2024-02-23T11:32:16;98957.53;;;11.79;53.87
51496;BME280;37572;52.094;4.870;2024-02-23T11:34:54;98961.22;;;11.72;54.03
51496;BME280;37572;52.094;4.870;2024-02-23T11:37:19;98960.84;;;11.61;53.87
51496;BME280;37572;52.094;4.870;2024-02-23T11:39:45;98969.44;;;11.57;54.32
51496;BME280;37572;52.094;4.870;2024-02-23T11:42:10;98962.69;;;11.54;54.21
51496;BME280;37572;52.094;4.870;2024-02-23T11:44:36;98967.59;;;11.51;54.00
51496;BME280;37572;52.094;4.870;2024-02-23T11:47:02;98985.03;;;11.46;54.23
51496;BME280;37572;52.094;4.870;2024-02-23T11:49:30;98961.47;;;11.43;54.66
51496;BME280;37572;52.094;4.870;2024-02-23T11:51:56;98969.66;;;11.42;54.47
51496;BME280;37572;52.094;4.870;2024-02-23T11:54:22;98982.59;;;11.45;54.62
51496;BME280;37572;52.094;4.870;2024-02-23T11:56:48;98965.78;;;11.44;54.45
51496;BME280;37572;52.094;4.870;2024-02-23T11:59:20;98977.06;;;11.46;54.09
51496;BME280;37572;52.094;4.870;2024-02-23T12:01:46;98980.31;;;11.42;54.24
51496;BME280;37572;52.094;4.870;2024-02-23T12:04:14;98974.38;;;11.46;54.58
51496;BME280;37572;52.094;4.870;2024-02-23T12:06:41;98974.59;;;11.45;54.52
51496;BME280;37572;52.094;4.870;2024-02-23T12:09:07;98971.72;;;11.46;54.30
51496;BME280;37572;52.094;4.870;2024-02-23T12:11:33;98993.03;;;11.53;54.73
51496;BME280;37572;52.094;4.870;2024-02-23T12:14:00;99006.56;;;11.72;55.08
51496;BME280;37572;52.094;4.870;2024-02-23T12:16:27;98982.34;;;11.93;54.47
51496;BME280;37572;52.094;4.870;2024-02-23T12:18:53;98986.19;;;12.11;54.14
51496;BME280;37572;52.094;4.870;2024-02-23T12:21:20;98990.66;;;12.24;53.75
51496;BME280;37572;52.094;4.870;2024-02-23T12:23:48;98998.38;;;12.38;53.52
51496;BME280;37572;52.094;4.870;2024-02-23T12:26:15;98985.19;;;12.50;53.26
51496;BME280;37572;52.094;4.870;2024-02-23T12:28:41;98990.25;;;12.65;52.86
51496;BME280;37572;52.094;4.870;2024-02-23T12:31:07;98984.63;;;12.80;52.03
51496;BME280;37572;52.094;4.870;2024-02-23T12:33:34;98983.34;;;12.89;51.84
51496;BME280;37572;52.094;4.870;2024-02-23T12:36:00;99012.09;;;12.94;51.46
51496;BME280;37572;52.094;4.870;2024-02-23T12:38:26;98992.34;;;12.95;51.15
51496;BME280;37572;52.094;4.870;2024-02-23T12:40:52;98981.22;;;12.98;51.39
51496;BME280;37572;52.094;4.870;2024-02-23T12:43:17;98995.72;;;13.09;51.54
51496;BME280;37572;52.094;4.870;2024-02-23T12:45:43;98991.19;;;13.16;51.17
51496;BME280;37572;52.094;4.870;2024-02-23T12:48:14;99008.41;;;13.20;50.98
51496;BME280;37572;52.094;4.870;2024-02-23T12:50:40;98997.72;;;13.20;50.56
51496;BME280;37572;52.094;4.870;2024-02-23T12:53:05;98990.38;;;13.09;50.30
51496;BME280;37572;52.094;4.870;2024-02-23T12:55:31;98996.63;;;13.03;50.67
51496;BME280;37572;52.094;4.870;2024-02-23T12:57:56;99001.97;;;13.03;50.91
51496;BME280;37572;52.094;4.870;2024-02-23T13:00:21;99016.09;;;13.10;50.19